aviador You're here:

KGAG Decoded Metar

GAGE in OK, USA
Report Time2018-06-24 08:53:00
UTC Time2018-06-24 09:25:52
Flight Rules vfr VFR
Wind110° at 07 kt
W.Decomp.*RWY 17: 2.6 kt HW 6.5 kt LCW
W.Rank110° ranks 30
Current wind is above 110° avg. (6.4)
Visibility9999 m
Phenomena:N/A
Clouds:Overcast 041 Hf
Expected CloudBase > 800 ft AGL from Temp-Dew spread
Ceiling4,100 ft
Temp18°C (ISA +7)
Dew Point16°C (88% RH)
AAT17.5°C
QNH1010 hPa
Density Alt3,406 ft
Elevation2,192 ft
Report Wrong Elevation
Raw Report
KGAG 240853Z AUTO 11007KT 10SM OVC041 18/16 A2982 RMK AO2 SLP071
60129 T01830161 58001 $=

Extra information for KGAG:More info

Metar Taf Metar & Taf Last 4 Metars F.Rules Stats Wind Profile Meteogram Temp Stats Airport Information Weather charts Add Link Nearby VenuesMetar ALERT Operation Metar Decoded Social comments

AIRNAV info for KGAG